Airfield :
LOGIN :

Register | Disclaimer

   EN    FR    IT 

 










Legend :    VFR   Marginal VFR   IFR   Intensive IFR   Very Intensive IFR
Visi :
Ceiling :
>= 8 km
>= 3000ft
5 to 8 km
1000 to 3000 ft
1500m to 5 km
500 to 1000 ft
800 to 1500m
200 to 500 ft
< 800m
< 200 ft
Symbols :   Thunderstorms  Fog  Heavy snow  Heavy precipitations  Wind > 20 kt
SIGMETs :     Misc.  Thunderstorms  Icing  Turbulence  Mountain Waves  Volcanic Ashes






- Airport Elevation : 327 ft
- IATA code : BHX


EGBB - Birmingham

CURRENT METAR :
  • 110320Z 15001KT CAVOK 05/04 Q1005

EXPIRED METARs :
  • 110250Z 16003KT CAVOK 05/04 Q1005
  • 110220Z 18004KT CAVOK 06/05 Q1005
  • 110150Z 17003KT CAVOK 05/05 Q1005
  • 110120Z 16003KT 9999 FEW017 06/05 Q1005
  • 110050Z 16004KT 9999 FEW027 06/05 Q1005

TAF TAF EGBB
Valid from the 11 at 00:00 until the 12 at 00:00 UTC


102254Z 1100/1124 17005KT 9999 SCT040
PROB40
TEMPO 1100/1108 8000 BKN008
TEMPO 1108/1122 7000 SHRA
PROB30
TEMPO 1109/1118 4000 +SHRA BKN014 BKN020CB
BECMG 1111/1114 17015KT
TEMPO 1114/1118 17018G28KT
ATIS : +44 121 780 0910



MET'MAP, your aeronautical weather chart ! - Copyright ORBIFLY December 2007 - Disclaimer

ORBIFLY MET'MAP TEAM :

Programming & Development : Alexandra Zaïnal
Concept & original design : Baudouin d'Aumeries
Assistance for programming : Marc-Olivier Méhu
Technical & hardware support : Manuel Goepfert

Contact : metmap@orbifly.com




SOURCES & CREDITS :

   NOAA